Airfield :







YOU CAN JOIN US ON...

 
LOGIN :

Register | Disclaimer

   EN    FR    IT 

 









Legend :    VFR   Marginal VFR   IFR   Intensive IFR   Very Intensive IFR
Visi :
Ceiling :
>= 8 km
>= 3000ft
5 to 8 km
1000 to 3000 ft
1500m to 5 km
500 to 1000 ft
800 to 1500m
200 to 500 ft
< 800m
< 200 ft
Symbols :   Thunderstorms  Fog  Heavy snow  Heavy precipitations  Wind > 20 kt






- Airport Elevation : 74 ft
- IATA code : STX


TISX - Henri E Rohlsen

CURRENT METAR :
  • 231753Z 12013G21KT 10SM CLR 32/25 A2998 RMK AO2 SLP149 60000 T03170250 10317 20283 58014

EXPIRED METARs :
  • 231653Z 12012KT 10SM CLR 32/25 A3000 RMK AO2 SLP157 T03170250
  • 231553Z 11013KT 10SM FEW025 32/26 A3001 RMK AO2 SLP162 T03170256
  • 231453Z 11014G21KT 10SM FEW022 FEW031 SCT039 31/26 A3002 RMK AO2 SLP162 60000 T03110256 50004
  • 231353Z 10013KT 10SM SCT025 BKN060 31/26 A3003 RMK AO2 RAE53 SLP166 P0000 T03060256

TAF TISX
Valid from the 23 at 18:00 until the 24 at 18:00 UTC


231750Z 2318/2418 11013G21KT P6SM FEW025 SCT050
FM232300 09008KT P6SM VCTS SCT025CB BKN050
FM241300 12012KT P6SM VCSH SCT025 SCT050
TJZS FIR / North America



MET'MAP, your aeronautical weather chart ! - Copyright ORBIFLY December 2007 - Disclaimer

ORBIFLY MET'MAP TEAM :

Programming & Development : Alexandra Zaïnal
Original concept : Baudouin d'Aumeries
Technical & hardware support : Manuel Goepfert
Assistance : Marc-Olivier Méhu




SOURCES & CREDITS :

   NOAA